NOZ89Z LCLK-ENGM
Flight info
| Callsign | NOZ89Z |
|---|---|
| Flight time | 4h 29m |
| Altitude | 36000 |
| Route | RUDER DCT BAPAX L620 VESAR UB545 OKLAM UL619 MAKOL/N0451F380 DCT IVDEK DCT OPT DCT KENIN DCT LENOV DCT RUMAR DCT SABAK DCT LUNIP |
| Aircraft | B38M/M-SDE1FGHILORVWXY/HB1 |
Departure
| Time | 2026-05-05 09:53 |
|---|---|
| Airport | Larnaca International Airport (LCLK) |
Arrival
| Time | 2026-05-05 14:23 |
|---|---|
| Airport | Oslo-Gardermoen International Airport (ENGM) |
| Time | Latitude | Longitude | Altitude | Speed | Heading |
|---|---|---|---|---|---|
| 2026-05-05 08:56 | 34.86907 | 33.60893 | 23 ft | 0 kts | 45° |
| 2026-05-05 09:41 | 34.86900 | 33.60885 | 25 ft | 4 kts | 45° |
| 2026-05-05 09:42 | 34.86881 | 33.60862 | 27 ft | 4 kts | 37° |
| 2026-05-05 09:42 | 34.86863 | 33.60848 | 27 ft | 4 kts | 37° |
| 2026-05-05 09:42 | 34.86852 | 33.60829 | 27 ft | 4 kts | 107° |
| 2026-05-05 09:42 | 34.86867 | 33.60807 | 28 ft | 4 kts | 135° |
| 2026-05-05 09:43 | 34.86873 | 33.60799 | 27 ft | 0 kts | 135° |
| 2026-05-05 09:46 | 34.86867 | 33.60807 | 28 ft | 3 kts | 135° |
| 2026-05-05 09:46 | 34.86833 | 33.60848 | 26 ft | 12 kts | 135° |
| 2026-05-05 09:47 | 34.86762 | 33.60932 | 23 ft | 16 kts | 135° |
| 2026-05-05 09:47 | 34.86686 | 33.61024 | 26 ft | 14 kts | 136° |
| 2026-05-05 09:47 | 34.86643 | 33.61125 | 23 ft | 15 kts | 66° |
| 2026-05-05 09:47 | 34.86714 | 33.61224 | 22 ft | 17 kts | 46° |
| 2026-05-05 09:48 | 34.86806 | 33.61337 | 20 ft | 20 kts | 44° |
| 2026-05-05 09:48 | 34.86906 | 33.61459 | 24 ft | 21 kts | 45° |
| 2026-05-05 09:48 | 34.87011 | 33.61588 | 21 ft | 22 kts | 45° |
| 2026-05-05 09:48 | 34.87117 | 33.61718 | 24 ft | 22 kts | 47° |
| 2026-05-05 09:49 | 34.87228 | 33.61854 | 25 ft | 23 kts | 45° |
| 2026-05-05 09:49 | 34.87346 | 33.61997 | 22 ft | 25 kts | 45° |
| 2026-05-05 09:49 | 34.87456 | 33.62132 | 21 ft | 22 kts | 45° |
| 2026-05-05 09:49 | 34.87571 | 33.62273 | 18 ft | 25 kts | 45° |
| 2026-05-05 09:50 | 34.87691 | 33.62419 | 21 ft | 22 kts | 45° |
| 2026-05-05 09:50 | 34.87798 | 33.62552 | 21 ft | 23 kts | 45° |
| 2026-05-05 09:50 | 34.87909 | 33.62686 | 25 ft | 23 kts | 44° |
| 2026-05-05 09:50 | 34.88026 | 33.62829 | 22 ft | 24 kts | 45° |
| 2026-05-05 09:51 | 34.88150 | 33.62978 | 21 ft | 26 kts | 46° |
| 2026-05-05 09:51 | 34.88284 | 33.63142 | 20 ft | 28 kts | 45° |
| 2026-05-05 09:51 | 34.88409 | 33.63294 | 19 ft | 22 kts | 44° |
| 2026-05-05 09:51 | 34.88434 | 33.63391 | 23 ft | 12 kts | 130° |
| 2026-05-05 09:52 | 34.88383 | 33.63471 | 22 ft | 12 kts | 102° |
| 2026-05-05 09:52 | 34.88350 | 33.63563 | 20 ft | 12 kts | 173° |
| 2026-05-05 09:52 | 34.88307 | 33.63530 | 20 ft | 0 kts | 224° |
| 2026-05-05 09:52 | 34.88281 | 33.63499 | 19 ft | 26 kts | 225° |
| 2026-05-05 09:53 | 34.87977 | 33.63126 | 22 ft | 95 kts | 225° |
| 2026-05-05 09:53 | 34.87362 | 33.62378 | 21 ft | 152 kts | 225° |
| 2026-05-05 09:53 | 34.86546 | 33.61364 | 388 ft | 170 kts | 223° |
| 2026-05-05 09:53 | 34.85701 | 33.60333 | 1119 ft | 174 kts | 226° |
| 2026-05-05 09:54 | 34.84788 | 33.59238 | 1706 ft | 192 kts | 226° |
| 2026-05-05 09:54 | 34.83774 | 33.58025 | 2459 ft | 216 kts | 227° |
| 2026-05-05 09:54 | 34.82671 | 33.56688 | 3111 ft | 238 kts | 226° |
| 2026-05-05 09:54 | 34.81222 | 33.55545 | 3799 ft | 261 kts | 199° |
| 2026-05-05 09:55 | 34.79384 | 33.55509 | 4697 ft | 270 kts | 162° |
| 2026-05-05 09:55 | 34.77787 | 33.56706 | 5753 ft | 275 kts | 136° |
| 2026-05-05 09:55 | 34.76403 | 33.58355 | 6648 ft | 284 kts | 137° |
| 2026-05-05 09:55 | 34.74927 | 33.60008 | 7566 ft | 289 kts | 138° |
| 2026-05-05 09:56 | 34.73597 | 33.61811 | 8538 ft | 296 kts | 118° |
| 2026-05-05 09:56 | 34.73083 | 33.64230 | 9456 ft | 298 kts | 86° |
| 2026-05-05 09:56 | 34.73625 | 33.66635 | 10240 ft | 300 kts | 58° |
| 2026-05-05 09:56 | 34.74738 | 33.68860 | 10747 ft | 318 kts | 57° |
| 2026-05-05 09:57 | 34.75883 | 33.71264 | 11173 ft | 337 kts | 57° |
| 2026-05-05 09:57 | 34.77067 | 33.73786 | 11759 ft | 348 kts | 57° |
| 2026-05-05 09:57 | 34.78281 | 33.76360 | 12641 ft | 351 kts | 56° |
| 2026-05-05 09:57 | 34.79495 | 33.78925 | 13378 ft | 357 kts | 55° |
| 2026-05-05 09:58 | 34.80736 | 33.81548 | 14135 ft | 360 kts | 54° |
| 2026-05-05 09:58 | 34.81999 | 33.84217 | 14809 ft | 365 kts | 54° |
| 2026-05-05 09:58 | 34.83267 | 33.86898 | 15475 ft | 369 kts | 54° |
| 2026-05-05 09:58 | 34.84555 | 33.89623 | 16131 ft | 373 kts | 54° |
| 2026-05-05 09:59 | 34.85858 | 33.92383 | 16786 ft | 377 kts | 54° |
| 2026-05-05 09:59 | 34.87160 | 33.95140 | 17457 ft | 381 kts | 54° |
| 2026-05-05 09:59 | 34.88485 | 33.97950 | 18159 ft | 383 kts | 54° |
| 2026-05-05 09:59 | 34.89827 | 34.00796 | 18651 ft | 389 kts | 54° |
| 2026-05-05 10:00 | 34.91186 | 34.03680 | 19194 ft | 392 kts | 54° |
| 2026-05-05 10:00 | 34.92553 | 34.06582 | 19696 ft | 396 kts | 54° |
| 2026-05-05 10:00 | 34.94123 | 34.09252 | 20159 ft | 389 kts | 37° |
| 2026-05-05 10:00 | 34.96252 | 34.11179 | 20615 ft | 377 kts | 18° |
| 2026-05-05 10:01 | 34.98676 | 34.12170 | 21070 ft | 365 kts | 2° |
| 2026-05-05 10:01 | 35.01199 | 34.12587 | 21537 ft | 366 kts | 358° |
| 2026-05-05 10:01 | 35.03734 | 34.12893 | 22141 ft | 366 kts | 358° |
| 2026-05-05 10:01 | 35.06287 | 34.13134 | 22654 ft | 369 kts | 357° |
| 2026-05-05 10:02 | 35.08855 | 34.13340 | 23190 ft | 371 kts | 356° |
| 2026-05-05 10:02 | 35.11408 | 34.13526 | 23665 ft | 373 kts | 356° |
| 2026-05-05 10:02 | 35.14007 | 34.13706 | 24071 ft | 375 kts | 356° |
| 2026-05-05 10:02 | 35.16625 | 34.13882 | 24473 ft | 377 kts | 356° |
| 2026-05-05 10:03 | 35.19265 | 34.14058 | 24873 ft | 380 kts | 356° |
| 2026-05-05 10:03 | 35.21906 | 34.14233 | 25256 ft | 382 kts | 355° |
| 2026-05-05 10:03 | 35.24571 | 34.14408 | 25664 ft | 385 kts | 356° |
| 2026-05-05 10:03 | 35.27234 | 34.14583 | 25988 ft | 389 kts | 356° |
| 2026-05-05 10:04 | 35.29948 | 34.14762 | 26356 ft | 391 kts | 356° |
| 2026-05-05 10:04 | 35.32675 | 34.14941 | 26716 ft | 394 kts | 356° |
| 2026-05-05 10:04 | 35.35426 | 34.15122 | 27072 ft | 396 kts | 356° |
| 2026-05-05 10:04 | 35.38188 | 34.15304 | 27424 ft | 399 kts | 356° |
| 2026-05-05 10:05 | 35.40980 | 34.15487 | 27764 ft | 401 kts | 356° |
| 2026-05-05 10:05 | 35.43779 | 34.15672 | 28102 ft | 404 kts | 356° |
| 2026-05-05 10:05 | 35.46553 | 34.15855 | 28441 ft | 406 kts | 356° |
| 2026-05-05 10:05 | 35.49389 | 34.16042 | 28770 ft | 409 kts | 356° |
| 2026-05-05 10:06 | 35.52244 | 34.16230 | 29072 ft | 412 kts | 356° |
| 2026-05-05 10:06 | 35.55123 | 34.16420 | 29421 ft | 414 kts | 355° |
| 2026-05-05 10:06 | 35.57976 | 34.16609 | 29734 ft | 416 kts | 355° |
| 2026-05-05 10:06 | 35.60877 | 34.16801 | 30039 ft | 419 kts | 355° |
| 2026-05-05 10:07 | 35.63807 | 34.16995 | 30316 ft | 421 kts | 356° |
| 2026-05-05 10:07 | 35.66748 | 34.17184 | 30539 ft | 424 kts | 356° |
| 2026-05-05 10:07 | 35.69654 | 34.16835 | 30756 ft | 414 kts | 340° |
| 2026-05-05 10:07 | 35.72266 | 34.15535 | 30917 ft | 411 kts | 328° |
| 2026-05-05 10:08 | 35.74786 | 34.13832 | 31123 ft | 414 kts | 327° |
| 2026-05-05 10:08 | 35.77291 | 34.12076 | 31383 ft | 415 kts | 327° |
| 2026-05-05 10:08 | 35.79796 | 34.10276 | 31634 ft | 416 kts | 326° |
| 2026-05-05 10:08 | 35.82287 | 34.08459 | 31948 ft | 416 kts | 326° |
| 2026-05-05 10:09 | 35.84749 | 34.06647 | 32296 ft | 415 kts | 326° |
| 2026-05-05 10:09 | 35.87224 | 34.04819 | 32642 ft | 414 kts | 326° |
| 2026-05-05 10:09 | 35.89702 | 34.02984 | 33005 ft | 414 kts | 326° |
| 2026-05-05 10:09 | 35.92174 | 34.01137 | 33231 ft | 416 kts | 325° |
| 2026-05-05 10:10 | 35.94636 | 33.99278 | 33439 ft | 417 kts | 326° |
| 2026-05-05 10:10 | 35.97124 | 33.97401 | 33745 ft | 417 kts | 325° |
| 2026-05-05 10:10 | 35.99607 | 33.95528 | 34040 ft | 417 kts | 325° |
| 2026-05-05 10:10 | 36.02046 | 33.93687 | 34362 ft | 414 kts | 326° |
| 2026-05-05 10:11 | 36.04494 | 33.91837 | 34701 ft | 412 kts | 326° |
| 2026-05-05 10:11 | 36.06953 | 33.89978 | 34898 ft | 413 kts | 326° |
| 2026-05-05 10:11 | 36.09411 | 33.88117 | 35103 ft | 414 kts | 326° |
| 2026-05-05 10:11 | 36.11850 | 33.86271 | 35306 ft | 415 kts | 326° |
| 2026-05-05 10:12 | 36.14305 | 33.84411 | 35500 ft | 416 kts | 326° |
| 2026-05-05 10:12 | 36.16773 | 33.82539 | 35702 ft | 416 kts | 326° |
| 2026-05-05 10:12 | 36.19258 | 33.80654 | 35899 ft | 417 kts | 326° |
| 2026-05-05 10:12 | 36.21741 | 33.78767 | 35953 ft | 419 kts | 326° |
| 2026-05-05 10:13 | 36.26696 | 33.74999 | 35945 ft | 417 kts | 326° |
| 2026-05-05 10:13 | 36.31617 | 33.71249 | 35943 ft | 417 kts | 326° |
| 2026-05-05 10:14 | 36.36554 | 33.67480 | 35936 ft | 417 kts | 326° |
| 2026-05-05 10:14 | 36.41491 | 33.63705 | 35931 ft | 416 kts | 326° |
| 2026-05-05 10:15 | 36.46399 | 33.59948 | 35958 ft | 417 kts | 326° |
| 2026-05-05 10:15 | 36.51347 | 33.56153 | 35953 ft | 418 kts | 326° |
| 2026-05-05 10:16 | 36.56297 | 33.52352 | 35951 ft | 418 kts | 326° |
| 2026-05-05 10:16 | 36.61237 | 33.48552 | 35959 ft | 418 kts | 326° |
| 2026-05-05 10:17 | 36.66181 | 33.44744 | 35965 ft | 418 kts | 326° |
| 2026-05-05 10:17 | 36.71105 | 33.40945 | 35965 ft | 418 kts | 326° |
| 2026-05-05 10:18 | 36.76071 | 33.37108 | 35990 ft | 421 kts | 326° |
| 2026-05-05 10:18 | 36.81026 | 33.33274 | 35988 ft | 422 kts | 326° |
| 2026-05-05 10:19 | 36.85972 | 33.29329 | 35982 ft | 420 kts | 318° |
| 2026-05-05 10:19 | 36.89998 | 33.24079 | 35971 ft | 419 kts | 313° |
| 2026-05-05 10:20 | 36.93979 | 33.18739 | 36002 ft | 420 kts | 312° |
| 2026-05-05 10:20 | 36.97896 | 33.13414 | 36012 ft | 418 kts | 313° |
| 2026-05-05 10:21 | 37.01833 | 33.08040 | 36015 ft | 417 kts | 312° |
| 2026-05-05 10:21 | 37.05765 | 33.02666 | 36022 ft | 420 kts | 313° |
| 2026-05-05 10:22 | 37.09693 | 32.97287 | 36023 ft | 420 kts | 313° |
| 2026-05-05 10:22 | 37.13640 | 32.91874 | 36023 ft | 420 kts | 313° |
| 2026-05-05 10:23 | 37.17559 | 32.86490 | 36020 ft | 418 kts | 313° |
| 2026-05-05 10:23 | 37.21469 | 32.81109 | 36018 ft | 415 kts | 313° |
| 2026-05-05 10:24 | 37.25343 | 32.75770 | 36022 ft | 416 kts | 313° |
| 2026-05-05 10:24 | 37.29242 | 32.70386 | 36013 ft | 416 kts | 313° |
| 2026-05-05 10:25 | 37.33125 | 32.65016 | 36023 ft | 416 kts | 313° |
| 2026-05-05 10:25 | 37.37006 | 32.59641 | 36008 ft | 414 kts | 313° |
| 2026-05-05 10:26 | 37.40857 | 32.54297 | 36012 ft | 412 kts | 313° |
| 2026-05-05 10:26 | 37.44693 | 32.48965 | 36008 ft | 413 kts | 313° |
| 2026-05-05 10:27 | 37.48541 | 32.43609 | 36007 ft | 413 kts | 313° |
| 2026-05-05 10:27 | 37.52392 | 32.38239 | 36009 ft | 413 kts | 313° |
| 2026-05-05 10:28 | 37.56234 | 32.32874 | 35994 ft | 413 kts | 314° |
| 2026-05-05 10:28 | 37.60092 | 32.27476 | 36006 ft | 413 kts | 313° |
| 2026-05-05 10:29 | 37.63924 | 32.22108 | 36012 ft | 413 kts | 313° |
| 2026-05-05 10:29 | 37.67764 | 32.16726 | 36010 ft | 413 kts | 313° |
| 2026-05-05 10:30 | 37.71622 | 32.11313 | 36026 ft | 413 kts | 313° |
| 2026-05-05 10:30 | 37.75456 | 32.05926 | 36002 ft | 414 kts | 314° |
| 2026-05-05 10:31 | 37.79311 | 32.00498 | 36019 ft | 415 kts | 314° |
| 2026-05-05 10:31 | 37.83157 | 31.95075 | 36026 ft | 415 kts | 314° |
| 2026-05-05 10:32 | 37.86359 | 31.90554 | 36029 ft | 415 kts | 314° |
| 2026-05-05 10:32 | 37.90842 | 31.84212 | 36024 ft | 415 kts | 314° |
| 2026-05-05 10:33 | 37.94046 | 31.79672 | 36002 ft | 415 kts | 314° |
| 2026-05-05 10:33 | 37.97857 | 31.74263 | 36013 ft | 409 kts | 314° |
| 2026-05-05 10:34 | 38.01645 | 31.68879 | 36020 ft | 409 kts | 314° |
| 2026-05-05 10:34 | 38.05442 | 31.63472 | 36024 ft | 409 kts | 314° |
| 2026-05-05 10:35 | 38.09207 | 31.58101 | 36032 ft | 410 kts | 314° |
| 2026-05-05 10:35 | 38.13008 | 31.52660 | 36027 ft | 412 kts | 314° |
| 2026-05-05 10:36 | 38.16794 | 31.47231 | 36022 ft | 409 kts | 313° |
| 2026-05-05 10:36 | 38.20567 | 31.41815 | 36028 ft | 409 kts | 313° |
| 2026-05-05 10:37 | 38.24340 | 31.36387 | 36028 ft | 409 kts | 313° |
| 2026-05-05 10:37 | 38.28095 | 31.30977 | 36023 ft | 409 kts | 313° |
| 2026-05-05 10:38 | 38.31863 | 31.25539 | 36023 ft | 409 kts | 313° |
| 2026-05-05 10:38 | 38.35626 | 31.20099 | 36015 ft | 408 kts | 313° |
| 2026-05-05 10:39 | 38.39369 | 31.14680 | 36025 ft | 409 kts | 313° |
| 2026-05-05 10:39 | 38.43124 | 31.09232 | 36024 ft | 409 kts | 313° |
| 2026-05-05 10:40 | 38.46885 | 31.03832 | 36020 ft | 408 kts | 318° |
| 2026-05-05 10:40 | 38.49163 | 31.01752 | 36018 ft | 404 kts | 334° |
| 2026-05-05 10:40 | 38.51760 | 31.00350 | 36024 ft | 407 kts | 336° |
| 2026-05-05 10:41 | 38.57031 | 30.97672 | 36042 ft | 407 kts | 338° |
| 2026-05-05 10:41 | 38.62321 | 30.95093 | 35998 ft | 407 kts | 338° |
| 2026-05-05 10:42 | 38.70337 | 30.91233 | 36024 ft | 410 kts | 338° |
| 2026-05-05 10:43 | 38.75629 | 30.88682 | 36026 ft | 409 kts | 338° |
| 2026-05-05 10:43 | 38.80965 | 30.86106 | 36025 ft | 409 kts | 338° |
| 2026-05-05 10:44 | 38.86269 | 30.83541 | 36023 ft | 409 kts | 338° |
| 2026-05-05 10:44 | 38.91600 | 30.80960 | 36027 ft | 409 kts | 338° |
| 2026-05-05 10:45 | 38.96892 | 30.78393 | 36028 ft | 409 kts | 338° |
| 2026-05-05 10:45 | 39.02232 | 30.75798 | 36021 ft | 409 kts | 338° |
| 2026-05-05 10:46 | 39.07530 | 30.73220 | 36025 ft | 409 kts | 338° |
| 2026-05-05 10:46 | 39.12871 | 30.70617 | 36019 ft | 409 kts | 338° |
| 2026-05-05 10:47 | 39.18195 | 30.68018 | 36027 ft | 410 kts | 338° |
| 2026-05-05 10:47 | 39.23520 | 30.65414 | 36025 ft | 411 kts | 338° |
| 2026-05-05 10:48 | 39.28876 | 30.62790 | 36034 ft | 411 kts | 338° |
| 2026-05-05 10:48 | 39.34192 | 30.60182 | 36037 ft | 411 kts | 338° |
| 2026-05-05 10:49 | 39.39538 | 30.57556 | 36033 ft | 411 kts | 338° |
| 2026-05-05 10:49 | 39.44879 | 30.54926 | 36043 ft | 412 kts | 338° |
| 2026-05-05 10:50 | 39.50241 | 30.52283 | 36039 ft | 411 kts | 338° |
| 2026-05-05 10:50 | 39.55531 | 30.49535 | 36050 ft | 411 kts | 335° |
| 2026-05-05 10:51 | 39.60747 | 30.46457 | 36062 ft | 411 kts | 335° |
| 2026-05-05 10:51 | 39.65975 | 30.43413 | 36055 ft | 413 kts | 335° |
| 2026-05-05 10:52 | 39.71193 | 30.40374 | 36050 ft | 413 kts | 335° |
| 2026-05-05 10:52 | 39.76432 | 30.37319 | 36053 ft | 414 kts | 335° |
| 2026-05-05 10:53 | 39.81702 | 30.34241 | 36047 ft | 414 kts | 335° |
| 2026-05-05 10:53 | 39.86946 | 30.31174 | 36053 ft | 415 kts | 335° |
| 2026-05-05 10:54 | 39.92181 | 30.28105 | 36061 ft | 415 kts | 335° |
| 2026-05-05 10:54 | 39.97456 | 30.25008 | 36065 ft | 415 kts | 335° |
| 2026-05-05 10:55 | 40.02701 | 30.21924 | 36062 ft | 415 kts | 335° |
| 2026-05-05 10:55 | 40.07974 | 30.18818 | 36078 ft | 415 kts | 335° |
| 2026-05-05 10:56 | 40.13246 | 30.15707 | 36075 ft | 416 kts | 335° |
| 2026-05-05 10:56 | 40.18486 | 30.12610 | 36078 ft | 416 kts | 335° |
| 2026-05-05 10:57 | 40.23779 | 30.09477 | 36076 ft | 417 kts | 335° |
| 2026-05-05 10:57 | 40.29084 | 30.06330 | 36067 ft | 418 kts | 335° |
| 2026-05-05 10:58 | 40.34344 | 30.03206 | 36073 ft | 419 kts | 335° |
| 2026-05-05 10:58 | 40.39665 | 30.00038 | 36073 ft | 419 kts | 335° |
| 2026-05-05 10:59 | 40.44988 | 29.96865 | 36073 ft | 419 kts | 335° |
| 2026-05-05 10:59 | 40.50304 | 29.93690 | 36076 ft | 419 kts | 335° |
| 2026-05-05 11:00 | 40.55568 | 29.90542 | 36073 ft | 419 kts | 335° |
| 2026-05-05 11:00 | 40.60895 | 29.87349 | 36074 ft | 420 kts | 335° |
| 2026-05-05 11:01 | 40.66223 | 29.84150 | 36074 ft | 420 kts | 335° |
| 2026-05-05 11:01 | 40.71550 | 29.80946 | 36063 ft | 422 kts | 335° |
| 2026-05-05 11:02 | 40.76883 | 29.77733 | 36071 ft | 424 kts | 335° |
| 2026-05-05 11:02 | 40.82242 | 29.74498 | 36075 ft | 424 kts | 335° |
| 2026-05-05 11:03 | 40.87613 | 29.71251 | 36073 ft | 423 kts | 335° |
| 2026-05-05 11:03 | 40.92975 | 29.68003 | 36078 ft | 423 kts | 335° |
| 2026-05-05 11:04 | 40.98309 | 29.64767 | 36081 ft | 423 kts | 335° |
| 2026-05-05 11:04 | 41.03665 | 29.61511 | 36074 ft | 424 kts | 335° |
| 2026-05-05 11:05 | 41.08999 | 29.58263 | 36064 ft | 425 kts | 335° |
| 2026-05-05 11:05 | 41.14396 | 29.54972 | 36069 ft | 428 kts | 335° |
| 2026-05-05 11:06 | 41.19821 | 29.51705 | 36070 ft | 427 kts | 340° |
| 2026-05-05 11:06 | 41.25502 | 29.49496 | 36075 ft | 427 kts | 344° |
| 2026-05-05 11:07 | 41.31217 | 29.47320 | 36067 ft | 427 kts | 344° |
| 2026-05-05 11:07 | 41.36929 | 29.45148 | 36077 ft | 430 kts | 344° |
| 2026-05-05 11:08 | 41.42700 | 29.42952 | 36081 ft | 430 kts | 344° |
| 2026-05-05 11:08 | 41.48438 | 29.40763 | 36074 ft | 429 kts | 344° |
| 2026-05-05 11:09 | 41.54191 | 29.38565 | 36083 ft | 429 kts | 344° |
| 2026-05-05 11:09 | 41.59945 | 29.36363 | 36069 ft | 432 kts | 344° |
| 2026-05-05 11:10 | 41.65708 | 29.34153 | 36085 ft | 433 kts | 344° |
| 2026-05-05 11:10 | 41.71487 | 29.31932 | 36085 ft | 432 kts | 344° |
| 2026-05-05 11:11 | 41.77262 | 29.29709 | 36084 ft | 432 kts | 344° |
| 2026-05-05 11:11 | 41.83001 | 29.27496 | 36075 ft | 432 kts | 344° |
| 2026-05-05 11:12 | 41.88812 | 29.25252 | 36093 ft | 435 kts | 344° |
| 2026-05-05 11:12 | 41.94623 | 29.23002 | 36085 ft | 434 kts | 344° |
| 2026-05-05 11:13 | 42.00421 | 29.20753 | 36088 ft | 434 kts | 344° |
| 2026-05-05 11:13 | 42.06224 | 29.18498 | 36085 ft | 434 kts | 344° |
| 2026-05-05 11:14 | 42.12004 | 29.16249 | 36087 ft | 436 kts | 344° |
| 2026-05-05 11:14 | 42.17665 | 29.13414 | 36065 ft | 436 kts | 327° |
| 2026-05-05 11:15 | 42.22563 | 29.08563 | 36064 ft | 438 kts | 324° |
| 2026-05-05 11:15 | 42.27439 | 29.03626 | 36086 ft | 438 kts | 324° |
| 2026-05-05 11:16 | 42.32276 | 28.98659 | 36084 ft | 440 kts | 323° |
| 2026-05-05 11:16 | 42.37188 | 28.93599 | 36090 ft | 441 kts | 324° |
| 2026-05-05 11:17 | 42.42057 | 28.88573 | 36091 ft | 441 kts | 324° |
| 2026-05-05 11:17 | 42.46918 | 28.83543 | 36089 ft | 441 kts | 324° |
| 2026-05-05 11:18 | 42.51780 | 28.78504 | 36088 ft | 441 kts | 323° |
| 2026-05-05 11:18 | 42.55832 | 28.74296 | 36089 ft | 441 kts | 323° |
| 2026-05-05 11:19 | 42.61489 | 28.68409 | 36085 ft | 441 kts | 323° |
| 2026-05-05 11:19 | 42.65541 | 28.64185 | 36089 ft | 440 kts | 324° |
| 2026-05-05 11:20 | 42.70406 | 28.59102 | 36089 ft | 442 kts | 323° |
| 2026-05-05 11:20 | 42.75278 | 28.54003 | 36088 ft | 442 kts | 323° |
| 2026-05-05 11:21 | 42.80148 | 28.48895 | 36087 ft | 442 kts | 323° |
| 2026-05-05 11:21 | 42.84993 | 28.43803 | 36089 ft | 442 kts | 323° |
| 2026-05-05 11:22 | 42.89880 | 28.38656 | 36087 ft | 445 kts | 323° |
| 2026-05-05 11:22 | 42.94775 | 28.33490 | 36090 ft | 443 kts | 323° |
| 2026-05-05 11:23 | 42.99609 | 28.28379 | 36087 ft | 443 kts | 323° |
| 2026-05-05 11:23 | 43.04486 | 28.23210 | 36080 ft | 443 kts | 323° |
| 2026-05-05 11:24 | 43.09365 | 28.18030 | 36087 ft | 445 kts | 323° |
| 2026-05-05 11:24 | 43.14257 | 28.12824 | 36080 ft | 445 kts | 323° |
| 2026-05-05 11:25 | 43.19135 | 28.07623 | 36073 ft | 445 kts | 323° |
| 2026-05-05 11:25 | 43.23984 | 28.02442 | 36066 ft | 444 kts | 323° |
| 2026-05-05 11:26 | 43.28858 | 27.97223 | 36075 ft | 443 kts | 323° |
| 2026-05-05 11:26 | 43.33713 | 27.92013 | 36076 ft | 442 kts | 323° |
| 2026-05-05 11:27 | 43.38533 | 27.86831 | 36073 ft | 443 kts | 323° |
| 2026-05-05 11:27 | 43.43392 | 27.81596 | 36063 ft | 442 kts | 323° |
| 2026-05-05 11:28 | 43.48218 | 27.76385 | 36059 ft | 440 kts | 323° |
| 2026-05-05 11:28 | 43.53055 | 27.71152 | 36055 ft | 443 kts | 323° |
| 2026-05-05 11:29 | 43.57856 | 27.65947 | 36051 ft | 442 kts | 323° |
| 2026-05-05 11:29 | 43.62695 | 27.60690 | 36052 ft | 441 kts | 323° |
| 2026-05-05 11:30 | 43.67491 | 27.55467 | 36042 ft | 436 kts | 323° |
| 2026-05-05 11:30 | 43.72267 | 27.50256 | 36051 ft | 437 kts | 323° |
| 2026-05-05 11:31 | 43.77014 | 27.45066 | 36047 ft | 437 kts | 323° |
| 2026-05-05 11:31 | 43.81805 | 27.39818 | 36045 ft | 440 kts | 323° |
| 2026-05-05 11:32 | 43.86579 | 27.34576 | 36042 ft | 435 kts | 323° |
| 2026-05-05 11:32 | 43.91296 | 27.29386 | 36045 ft | 435 kts | 323° |
| 2026-05-05 11:33 | 43.96045 | 27.24150 | 36044 ft | 435 kts | 323° |
| 2026-05-05 11:33 | 44.00755 | 27.18947 | 36036 ft | 435 kts | 323° |
| 2026-05-05 11:34 | 44.05469 | 27.13727 | 36042 ft | 431 kts | 323° |
| 2026-05-05 11:34 | 44.10183 | 27.08497 | 36044 ft | 434 kts | 323° |
| 2026-05-05 11:35 | 44.14882 | 27.03272 | 36044 ft | 434 kts | 323° |
| 2026-05-05 11:35 | 44.19601 | 26.98015 | 36041 ft | 434 kts | 323° |
| 2026-05-05 11:36 | 44.24274 | 26.92798 | 36039 ft | 432 kts | 323° |
| 2026-05-05 11:36 | 44.28966 | 26.87550 | 36039 ft | 431 kts | 323° |
| 2026-05-05 11:37 | 44.33662 | 26.82288 | 36042 ft | 432 kts | 323° |
| 2026-05-05 11:37 | 44.38310 | 26.77068 | 36037 ft | 433 kts | 323° |
| 2026-05-05 11:38 | 44.43003 | 26.71787 | 36041 ft | 433 kts | 323° |
| 2026-05-05 11:38 | 44.47726 | 26.66558 | 36034 ft | 431 kts | 328° |
| 2026-05-05 11:39 | 44.52742 | 26.61944 | 36037 ft | 431 kts | 328° |
| 2026-05-05 11:39 | 44.57765 | 26.57361 | 36037 ft | 431 kts | 328° |
| 2026-05-05 11:40 | 44.62465 | 26.52182 | 36044 ft | 432 kts | 323° |
| 2026-05-05 11:40 | 44.67155 | 26.46863 | 36036 ft | 432 kts | 323° |
| 2026-05-05 11:41 | 44.71854 | 26.41569 | 36033 ft | 432 kts | 323° |
| 2026-05-05 11:41 | 44.76526 | 26.36301 | 36032 ft | 433 kts | 323° |
| 2026-05-05 11:42 | 44.81228 | 26.30989 | 36020 ft | 432 kts | 323° |
| 2026-05-05 11:42 | 44.85918 | 26.25679 | 36028 ft | 431 kts | 323° |
| 2026-05-05 11:42 | 44.88233 | 26.23053 | 36202 ft | 432 kts | 323° |
| 2026-05-05 11:43 | 44.90574 | 26.20396 | 36444 ft | 432 kts | 323° |
| 2026-05-05 11:43 | 44.92916 | 26.17734 | 36645 ft | 433 kts | 323° |
| 2026-05-05 11:43 | 44.95267 | 26.15059 | 36829 ft | 434 kts | 323° |
| 2026-05-05 11:43 | 44.97609 | 26.12392 | 37041 ft | 434 kts | 323° |
| 2026-05-05 11:44 | 44.99969 | 26.09700 | 37253 ft | 435 kts | 322° |
| 2026-05-05 11:44 | 45.02326 | 26.07010 | 37504 ft | 434 kts | 322° |
| 2026-05-05 11:44 | 45.04642 | 26.04364 | 37752 ft | 433 kts | 322° |
| 2026-05-05 11:44 | 45.06982 | 26.01687 | 37860 ft | 434 kts | 322° |
| 2026-05-05 11:45 | 45.09329 | 25.98999 | 37831 ft | 433 kts | 322° |
| 2026-05-05 11:45 | 45.13998 | 25.93644 | 38043 ft | 430 kts | 322° |
| 2026-05-05 11:46 | 45.18637 | 25.88311 | 38025 ft | 432 kts | 322° |
| 2026-05-05 11:46 | 45.23303 | 25.82934 | 38041 ft | 432 kts | 322° |
| 2026-05-05 11:47 | 45.27973 | 25.77544 | 38039 ft | 432 kts | 322° |
| 2026-05-05 11:47 | 45.32640 | 25.72144 | 38039 ft | 432 kts | 322° |
| 2026-05-05 11:48 | 45.39623 | 25.64041 | 38050 ft | 432 kts | 322° |
| 2026-05-05 11:48 | 45.44248 | 25.58660 | 38042 ft | 431 kts | 322° |
| 2026-05-05 11:49 | 45.48897 | 25.53239 | 38041 ft | 431 kts | 322° |
| 2026-05-05 11:49 | 45.53539 | 25.47815 | 38040 ft | 433 kts | 322° |
| 2026-05-05 11:50 | 45.58218 | 25.42335 | 38048 ft | 435 kts | 321° |
| 2026-05-05 11:50 | 45.62859 | 25.36887 | 38040 ft | 433 kts | 321° |
| 2026-05-05 11:51 | 45.67522 | 25.31403 | 38045 ft | 433 kts | 321° |
| 2026-05-05 11:51 | 45.72171 | 25.25921 | 38045 ft | 433 kts | 321° |
| 2026-05-05 11:52 | 45.76809 | 25.20440 | 38041 ft | 433 kts | 321° |
| 2026-05-05 11:52 | 45.81455 | 25.14938 | 38030 ft | 433 kts | 321° |
| 2026-05-05 11:53 | 45.86070 | 25.09461 | 38037 ft | 433 kts | 321° |
| 2026-05-05 11:53 | 45.90714 | 25.03936 | 38040 ft | 433 kts | 321° |
| 2026-05-05 11:54 | 45.95336 | 24.98426 | 38029 ft | 433 kts | 321° |
| 2026-05-05 11:54 | 45.99979 | 24.92878 | 38040 ft | 433 kts | 321° |
| 2026-05-05 11:55 | 46.04610 | 24.87331 | 38039 ft | 432 kts | 321° |
| 2026-05-05 11:55 | 46.09189 | 24.81835 | 38039 ft | 431 kts | 321° |
| 2026-05-05 11:56 | 46.13794 | 24.76295 | 38042 ft | 432 kts | 321° |
| 2026-05-05 11:56 | 46.18410 | 24.70730 | 38043 ft | 431 kts | 321° |
| 2026-05-05 11:57 | 46.22983 | 24.65203 | 38035 ft | 432 kts | 321° |
| 2026-05-05 11:57 | 46.27594 | 24.59618 | 38042 ft | 431 kts | 321° |
| 2026-05-05 11:58 | 46.32178 | 24.54054 | 38041 ft | 431 kts | 321° |
| 2026-05-05 11:58 | 46.36752 | 24.48489 | 38043 ft | 431 kts | 321° |
| 2026-05-05 11:59 | 46.41346 | 24.42887 | 38024 ft | 431 kts | 320° |
| 2026-05-05 11:59 | 46.45934 | 24.37279 | 38044 ft | 432 kts | 320° |
| 2026-05-05 12:00 | 46.50521 | 24.31660 | 38047 ft | 431 kts | 320° |
| 2026-05-05 12:00 | 46.55073 | 24.26071 | 38047 ft | 431 kts | 320° |
| 2026-05-05 12:01 | 46.59681 | 24.20400 | 38044 ft | 431 kts | 320° |
| 2026-05-05 12:01 | 46.64228 | 24.14791 | 38038 ft | 431 kts | 320° |
| 2026-05-05 12:02 | 46.68796 | 24.09144 | 38043 ft | 431 kts | 320° |
| 2026-05-05 12:02 | 46.73365 | 24.03483 | 38041 ft | 431 kts | 320° |
| 2026-05-05 12:03 | 46.77940 | 23.97801 | 38030 ft | 432 kts | 320° |
| 2026-05-05 12:03 | 46.82485 | 23.92142 | 38027 ft | 431 kts | 320° |
| 2026-05-05 12:04 | 46.87057 | 23.86438 | 38023 ft | 431 kts | 320° |
| 2026-05-05 12:04 | 46.90839 | 23.81708 | 38025 ft | 430 kts | 320° |
| 2026-05-05 12:05 | 46.96128 | 23.75080 | 38024 ft | 430 kts | 320° |
| 2026-05-05 12:05 | 46.99914 | 23.70324 | 38028 ft | 431 kts | 320° |
| 2026-05-05 12:06 | 47.04464 | 23.64596 | 38028 ft | 431 kts | 320° |
| 2026-05-05 12:06 | 47.09003 | 23.58869 | 38025 ft | 431 kts | 320° |
| 2026-05-05 12:07 | 47.13551 | 23.53116 | 38022 ft | 431 kts | 320° |
| 2026-05-05 12:07 | 47.18069 | 23.47389 | 38021 ft | 431 kts | 320° |
| 2026-05-05 12:08 | 47.22606 | 23.41623 | 38017 ft | 431 kts | 319° |
| 2026-05-05 12:08 | 47.27136 | 23.35852 | 38021 ft | 430 kts | 319° |
| 2026-05-05 12:09 | 47.31632 | 23.30113 | 38009 ft | 428 kts | 319° |
| 2026-05-05 12:09 | 47.36139 | 23.24346 | 38015 ft | 429 kts | 319° |
| 2026-05-05 12:10 | 47.40649 | 23.18560 | 38012 ft | 429 kts | 319° |
| 2026-05-05 12:10 | 47.45146 | 23.12779 | 38005 ft | 429 kts | 319° |
| 2026-05-05 12:11 | 47.49626 | 23.07005 | 38006 ft | 428 kts | 319° |
| 2026-05-05 12:11 | 47.54107 | 23.01216 | 38000 ft | 426 kts | 319° |
| 2026-05-05 12:12 | 47.58585 | 22.95418 | 37996 ft | 427 kts | 319° |
| 2026-05-05 12:12 | 47.63028 | 22.89651 | 37992 ft | 427 kts | 319° |
| 2026-05-05 12:13 | 47.67487 | 22.83851 | 37994 ft | 427 kts | 319° |
| 2026-05-05 12:13 | 47.71954 | 22.78025 | 37991 ft | 426 kts | 319° |
| 2026-05-05 12:14 | 47.76403 | 22.72210 | 37995 ft | 426 kts | 318° |
| 2026-05-05 12:14 | 47.80832 | 22.66407 | 37995 ft | 426 kts | 318° |
| 2026-05-05 12:15 | 47.85268 | 22.60581 | 37996 ft | 426 kts | 318° |
| 2026-05-05 12:15 | 47.89674 | 22.54780 | 37994 ft | 426 kts | 318° |
| 2026-05-05 12:16 | 47.94111 | 22.48924 | 37993 ft | 426 kts | 318° |
| 2026-05-05 12:16 | 47.98542 | 22.43064 | 37991 ft | 426 kts | 318° |
| 2026-05-05 12:17 | 48.02974 | 22.37190 | 37989 ft | 426 kts | 318° |
| 2026-05-05 12:17 | 48.07405 | 22.31305 | 37985 ft | 426 kts | 318° |
| 2026-05-05 12:18 | 48.11806 | 22.25445 | 37987 ft | 426 kts | 317° |
| 2026-05-05 12:18 | 48.16234 | 22.19536 | 37982 ft | 426 kts | 317° |
| 2026-05-05 12:19 | 48.20657 | 22.13620 | 37979 ft | 426 kts | 317° |
| 2026-05-05 12:19 | 48.25079 | 22.07691 | 37971 ft | 426 kts | 317° |
| 2026-05-05 12:20 | 48.29466 | 22.01794 | 37977 ft | 425 kts | 317° |
| 2026-05-05 12:20 | 48.33872 | 21.95858 | 37971 ft | 426 kts | 317° |
| 2026-05-05 12:21 | 48.38587 | 21.90541 | 37996 ft | 427 kts | 327° |
| 2026-05-05 12:21 | 48.43629 | 21.85859 | 37975 ft | 425 kts | 327° |
| 2026-05-05 12:22 | 48.48695 | 21.81172 | 37971 ft | 427 kts | 327° |
| 2026-05-05 12:22 | 48.53773 | 21.76471 | 37974 ft | 429 kts | 327° |
| 2026-05-05 12:23 | 48.58852 | 21.71759 | 37968 ft | 427 kts | 327° |
| 2026-05-05 12:23 | 48.63875 | 21.67088 | 37968 ft | 427 kts | 327° |
| 2026-05-05 12:24 | 48.68933 | 21.62371 | 37965 ft | 427 kts | 327° |
| 2026-05-05 12:24 | 48.74001 | 21.57634 | 37963 ft | 428 kts | 327° |
| 2026-05-05 12:25 | 48.79080 | 21.52875 | 37975 ft | 429 kts | 327° |
| 2026-05-05 12:25 | 48.84129 | 21.48135 | 37961 ft | 427 kts | 327° |
| 2026-05-05 12:26 | 48.89148 | 21.43410 | 37948 ft | 426 kts | 326° |
| 2026-05-05 12:26 | 48.94198 | 21.38645 | 37966 ft | 428 kts | 326° |
| 2026-05-05 12:27 | 48.99261 | 21.33856 | 37965 ft | 428 kts | 326° |
| 2026-05-05 12:27 | 49.04316 | 21.29063 | 37961 ft | 428 kts | 326° |
| 2026-05-05 12:28 | 49.09372 | 21.24258 | 37958 ft | 427 kts | 326° |
| 2026-05-05 12:28 | 49.14377 | 21.19487 | 37945 ft | 426 kts | 326° |
| 2026-05-05 12:29 | 49.19438 | 21.14655 | 37955 ft | 428 kts | 326° |
| 2026-05-05 12:29 | 49.24487 | 21.09820 | 37967 ft | 430 kts | 326° |
| 2026-05-05 12:30 | 49.29551 | 21.04963 | 37943 ft | 427 kts | 326° |
| 2026-05-05 12:30 | 49.34637 | 21.00326 | 37941 ft | 428 kts | 331° |
| 2026-05-05 12:31 | 49.39988 | 20.96260 | 37950 ft | 430 kts | 331° |
| 2026-05-05 12:31 | 49.45369 | 20.92200 | 37948 ft | 431 kts | 331° |
| 2026-05-05 12:32 | 49.50746 | 20.88138 | 37933 ft | 430 kts | 330° |
| 2026-05-05 12:32 | 49.56104 | 20.84079 | 37924 ft | 429 kts | 331° |
| 2026-05-05 12:33 | 49.61474 | 20.80001 | 37924 ft | 431 kts | 331° |
| 2026-05-05 12:33 | 49.66818 | 20.75934 | 37919 ft | 430 kts | 331° |
| 2026-05-05 12:34 | 49.72178 | 20.71843 | 37928 ft | 430 kts | 331° |
| 2026-05-05 12:34 | 49.77574 | 20.67715 | 37912 ft | 433 kts | 331° |
| 2026-05-05 12:35 | 49.82985 | 20.63566 | 37896 ft | 433 kts | 331° |
| 2026-05-05 12:35 | 49.88389 | 20.59411 | 37903 ft | 433 kts | 331° |
| 2026-05-05 12:36 | 49.93759 | 20.55273 | 37893 ft | 433 kts | 331° |
| 2026-05-05 12:36 | 49.99164 | 20.51096 | 37893 ft | 433 kts | 331° |
| 2026-05-05 12:37 | 50.04528 | 20.46940 | 37897 ft | 432 kts | 330° |
| 2026-05-05 12:37 | 50.09910 | 20.42762 | 37894 ft | 432 kts | 330° |
| 2026-05-05 12:38 | 50.15278 | 20.38582 | 37886 ft | 432 kts | 330° |
| 2026-05-05 12:38 | 50.20665 | 20.34378 | 37874 ft | 432 kts | 330° |
| 2026-05-05 12:39 | 50.26006 | 20.30198 | 37881 ft | 432 kts | 330° |
| 2026-05-05 12:39 | 50.31382 | 20.25981 | 37866 ft | 431 kts | 330° |
| 2026-05-05 12:40 | 50.36736 | 20.21770 | 37873 ft | 432 kts | 330° |
| 2026-05-05 12:40 | 50.42120 | 20.17525 | 37866 ft | 433 kts | 330° |
| 2026-05-05 12:41 | 50.47471 | 20.13296 | 37866 ft | 433 kts | 330° |
| 2026-05-05 12:41 | 50.52848 | 20.09034 | 37865 ft | 433 kts | 330° |
| 2026-05-05 12:42 | 50.58214 | 20.04770 | 37858 ft | 432 kts | 330° |
| 2026-05-05 12:42 | 50.63582 | 20.00495 | 37856 ft | 432 kts | 330° |
| 2026-05-05 12:43 | 50.68910 | 19.96239 | 37851 ft | 433 kts | 329° |
| 2026-05-05 12:43 | 50.74294 | 19.91929 | 37847 ft | 434 kts | 329° |
| 2026-05-05 12:44 | 50.79681 | 19.87604 | 37836 ft | 434 kts | 329° |
| 2026-05-05 12:44 | 50.85061 | 19.83273 | 37838 ft | 434 kts | 329° |
| 2026-05-05 12:45 | 50.90436 | 19.78936 | 37832 ft | 433 kts | 329° |
| 2026-05-05 12:45 | 50.95816 | 19.74583 | 37825 ft | 433 kts | 329° |
| 2026-05-05 12:46 | 51.01158 | 19.70250 | 37822 ft | 434 kts | 329° |
| 2026-05-05 12:46 | 51.06546 | 19.65868 | 37827 ft | 436 kts | 329° |
| 2026-05-05 12:47 | 51.11949 | 19.61462 | 37826 ft | 435 kts | 329° |
| 2026-05-05 12:47 | 51.17314 | 19.57076 | 37817 ft | 435 kts | 329° |
| 2026-05-05 12:48 | 51.22699 | 19.52661 | 37815 ft | 435 kts | 329° |
| 2026-05-05 12:48 | 51.28070 | 19.48247 | 37814 ft | 435 kts | 329° |
| 2026-05-05 12:49 | 51.33417 | 19.43840 | 37826 ft | 435 kts | 329° |
| 2026-05-05 12:49 | 51.38802 | 19.39390 | 37830 ft | 435 kts | 329° |
| 2026-05-05 12:50 | 51.44182 | 19.34933 | 37799 ft | 435 kts | 329° |
| 2026-05-05 12:50 | 51.48644 | 19.31227 | 37805 ft | 435 kts | 329° |
| 2026-05-05 12:51 | 51.54033 | 19.26740 | 37811 ft | 435 kts | 328° |
| 2026-05-05 12:51 | 51.59405 | 19.22255 | 37802 ft | 435 kts | 328° |
| 2026-05-05 12:52 | 51.64746 | 19.17785 | 37808 ft | 435 kts | 328° |
| 2026-05-05 12:52 | 51.70107 | 19.13285 | 37806 ft | 435 kts | 328° |
| 2026-05-05 12:53 | 51.75473 | 19.08769 | 37809 ft | 434 kts | 328° |
| 2026-05-05 12:53 | 51.80837 | 19.04243 | 37808 ft | 434 kts | 328° |
| 2026-05-05 12:54 | 51.88840 | 18.97467 | 37805 ft | 434 kts | 328° |
| 2026-05-05 12:55 | 51.94193 | 18.92920 | 37803 ft | 434 kts | 328° |
| 2026-05-05 12:55 | 51.99542 | 18.88363 | 37814 ft | 435 kts | 328° |
| 2026-05-05 12:56 | 52.04879 | 18.83804 | 37810 ft | 436 kts | 328° |
| 2026-05-05 12:56 | 52.10251 | 18.79203 | 37811 ft | 436 kts | 328° |
| 2026-05-05 12:57 | 52.15607 | 18.74603 | 37809 ft | 436 kts | 328° |
| 2026-05-05 12:57 | 52.20945 | 18.70006 | 37809 ft | 436 kts | 328° |
| 2026-05-05 12:58 | 52.26309 | 18.65373 | 37831 ft | 436 kts | 328° |
| 2026-05-05 12:58 | 52.31676 | 18.60725 | 37839 ft | 436 kts | 328° |
| 2026-05-05 12:59 | 52.37023 | 18.56083 | 37819 ft | 436 kts | 327° |
| 2026-05-05 12:59 | 52.42356 | 18.51439 | 37832 ft | 436 kts | 327° |
| 2026-05-05 13:00 | 52.50402 | 18.44409 | 37843 ft | 436 kts | 327° |
| 2026-05-05 13:01 | 52.61073 | 18.35039 | 37843 ft | 436 kts | 327° |
| 2026-05-05 13:01 | 52.66434 | 18.30312 | 37865 ft | 436 kts | 327° |
| 2026-05-05 13:02 | 52.71766 | 18.25598 | 37856 ft | 436 kts | 327° |
| 2026-05-05 13:02 | 52.77123 | 18.20848 | 37853 ft | 437 kts | 327° |
| 2026-05-05 13:03 | 52.82459 | 18.16103 | 37861 ft | 437 kts | 327° |
| 2026-05-05 13:03 | 52.87817 | 18.11324 | 37871 ft | 437 kts | 327° |
| 2026-05-05 13:04 | 52.93170 | 18.06539 | 37863 ft | 437 kts | 327° |
| 2026-05-05 13:04 | 52.98491 | 18.01768 | 37874 ft | 437 kts | 327° |
| 2026-05-05 13:05 | 53.03828 | 17.96968 | 37853 ft | 437 kts | 327° |
| 2026-05-05 13:05 | 53.09174 | 17.92147 | 37852 ft | 437 kts | 326° |
| 2026-05-05 13:06 | 53.14523 | 17.87309 | 37846 ft | 437 kts | 326° |
| 2026-05-05 13:06 | 53.19846 | 17.82481 | 37864 ft | 438 kts | 326° |
| 2026-05-05 13:07 | 53.25207 | 17.77605 | 37881 ft | 438 kts | 326° |
| 2026-05-05 13:07 | 53.30573 | 17.72710 | 37881 ft | 438 kts | 326° |
| 2026-05-05 13:08 | 53.35932 | 17.67807 | 37894 ft | 439 kts | 326° |
| 2026-05-05 13:08 | 53.41263 | 17.62916 | 37892 ft | 439 kts | 326° |
| 2026-05-05 13:09 | 53.46624 | 17.57983 | 37914 ft | 439 kts | 326° |
| 2026-05-05 13:09 | 53.51988 | 17.53033 | 37882 ft | 439 kts | 326° |
| 2026-05-05 13:10 | 53.57316 | 17.48103 | 37890 ft | 439 kts | 326° |
| 2026-05-05 13:10 | 53.62659 | 17.43143 | 37883 ft | 438 kts | 326° |
| 2026-05-05 13:11 | 53.67998 | 17.38171 | 37897 ft | 438 kts | 326° |
| 2026-05-05 13:11 | 53.73302 | 17.33221 | 37900 ft | 437 kts | 326° |
| 2026-05-05 13:12 | 53.78634 | 17.28228 | 37906 ft | 437 kts | 326° |
| 2026-05-05 13:12 | 53.83961 | 17.23226 | 37909 ft | 438 kts | 326° |
| 2026-05-05 13:13 | 53.89289 | 17.18207 | 37912 ft | 438 kts | 326° |
| 2026-05-05 13:13 | 53.94610 | 17.13181 | 37904 ft | 438 kts | 325° |
| 2026-05-05 13:14 | 53.99905 | 17.08164 | 37913 ft | 438 kts | 325° |
| 2026-05-05 13:14 | 54.05229 | 17.03105 | 37902 ft | 437 kts | 325° |
| 2026-05-05 13:15 | 54.10548 | 16.98036 | 37916 ft | 438 kts | 325° |
| 2026-05-05 13:15 | 54.15856 | 16.92967 | 37914 ft | 438 kts | 325° |
| 2026-05-05 13:16 | 54.21178 | 16.87875 | 37922 ft | 438 kts | 325° |
| 2026-05-05 13:16 | 54.26462 | 16.82804 | 37926 ft | 438 kts | 325° |
| 2026-05-05 13:17 | 54.31783 | 16.77681 | 37930 ft | 438 kts | 325° |
| 2026-05-05 13:17 | 54.37084 | 16.72562 | 37955 ft | 439 kts | 325° |
| 2026-05-05 13:18 | 54.42410 | 16.67405 | 37928 ft | 439 kts | 325° |
| 2026-05-05 13:18 | 54.47730 | 16.62238 | 37929 ft | 439 kts | 325° |
| 2026-05-05 13:19 | 54.53058 | 16.57046 | 37926 ft | 439 kts | 325° |
| 2026-05-05 13:19 | 54.58336 | 16.51888 | 37932 ft | 439 kts | 324° |
| 2026-05-05 13:20 | 54.63659 | 16.46671 | 37930 ft | 439 kts | 324° |
| 2026-05-05 13:20 | 54.68976 | 16.41443 | 37950 ft | 439 kts | 324° |
| 2026-05-05 13:21 | 54.74284 | 16.36209 | 37934 ft | 439 kts | 324° |
| 2026-05-05 13:21 | 54.79545 | 16.31005 | 37932 ft | 439 kts | 324° |
| 2026-05-05 13:22 | 54.84852 | 16.25740 | 37930 ft | 439 kts | 324° |
| 2026-05-05 13:22 | 54.90163 | 16.20454 | 37934 ft | 439 kts | 324° |
| 2026-05-05 13:23 | 54.95436 | 16.15190 | 37930 ft | 439 kts | 324° |
| 2026-05-05 13:23 | 55.00723 | 16.09896 | 37930 ft | 439 kts | 324° |
| 2026-05-05 13:24 | 55.06014 | 16.04582 | 37930 ft | 439 kts | 324° |
| 2026-05-05 13:24 | 55.11304 | 15.99251 | 37931 ft | 439 kts | 324° |
| 2026-05-05 13:25 | 55.16593 | 15.93906 | 37930 ft | 439 kts | 324° |
| 2026-05-05 13:25 | 55.21866 | 15.88561 | 37930 ft | 439 kts | 324° |
| 2026-05-05 13:26 | 55.27113 | 15.83225 | 37940 ft | 439 kts | 324° |
| 2026-05-05 13:26 | 55.32403 | 15.77829 | 37926 ft | 438 kts | 324° |
| 2026-05-05 13:27 | 55.37682 | 15.72428 | 37928 ft | 438 kts | 324° |
| 2026-05-05 13:27 | 55.42912 | 15.67060 | 37930 ft | 438 kts | 324° |
| 2026-05-05 13:28 | 55.48184 | 15.61631 | 37926 ft | 438 kts | 324° |
| 2026-05-05 13:28 | 55.53422 | 15.56221 | 37921 ft | 438 kts | 324° |
| 2026-05-05 13:29 | 55.58689 | 15.50764 | 37919 ft | 438 kts | 324° |
| 2026-05-05 13:29 | 55.63939 | 15.45308 | 37920 ft | 437 kts | 324° |
| 2026-05-05 13:30 | 55.69154 | 15.39871 | 37917 ft | 437 kts | 324° |
| 2026-05-05 13:30 | 55.74396 | 15.34388 | 37916 ft | 437 kts | 324° |
| 2026-05-05 13:31 | 55.79644 | 15.28882 | 37912 ft | 437 kts | 324° |
| 2026-05-05 13:31 | 55.84867 | 15.23385 | 37909 ft | 437 kts | 324° |
| 2026-05-05 13:32 | 55.90071 | 15.17890 | 37908 ft | 437 kts | 324° |
| 2026-05-05 13:32 | 55.95311 | 15.12340 | 37902 ft | 437 kts | 324° |
| 2026-05-05 13:33 | 56.00538 | 15.06786 | 37891 ft | 437 kts | 324° |
| 2026-05-05 13:33 | 56.05745 | 15.01236 | 37892 ft | 437 kts | 324° |
| 2026-05-05 13:34 | 56.10970 | 14.95649 | 37904 ft | 437 kts | 324° |
| 2026-05-05 13:34 | 56.16161 | 14.90080 | 37898 ft | 437 kts | 324° |
| 2026-05-05 13:35 | 56.21380 | 14.84464 | 37893 ft | 437 kts | 324° |
| 2026-05-05 13:35 | 56.26596 | 14.78832 | 37899 ft | 436 kts | 323° |
| 2026-05-05 13:36 | 56.31781 | 14.73217 | 37895 ft | 436 kts | 323° |
| 2026-05-05 13:36 | 56.36980 | 14.67567 | 37888 ft | 436 kts | 323° |
| 2026-05-05 13:37 | 56.41294 | 14.62866 | 37896 ft | 436 kts | 323° |
| 2026-05-05 13:37 | 56.46498 | 14.57178 | 37896 ft | 436 kts | 323° |
| 2026-05-05 13:38 | 56.51669 | 14.51508 | 37889 ft | 435 kts | 323° |
| 2026-05-05 13:38 | 56.56840 | 14.45818 | 37908 ft | 436 kts | 323° |
| 2026-05-05 13:39 | 56.62080 | 14.40036 | 37894 ft | 443 kts | 323° |
| 2026-05-05 13:39 | 56.67324 | 14.34228 | 37895 ft | 444 kts | 323° |
| 2026-05-05 13:40 | 56.72584 | 14.28384 | 37894 ft | 444 kts | 323° |
| 2026-05-05 13:40 | 56.77852 | 14.22512 | 37897 ft | 444 kts | 323° |
| 2026-05-05 13:41 | 56.83116 | 14.16625 | 37917 ft | 444 kts | 323° |
| 2026-05-05 13:41 | 56.88379 | 14.10719 | 37912 ft | 443 kts | 322° |
| 2026-05-05 13:42 | 56.93616 | 14.04823 | 37903 ft | 443 kts | 322° |
| 2026-05-05 13:42 | 56.98864 | 13.98894 | 37908 ft | 443 kts | 322° |
| 2026-05-05 13:43 | 57.04073 | 13.92990 | 37904 ft | 443 kts | 322° |
| 2026-05-05 13:43 | 57.09317 | 13.87026 | 37906 ft | 442 kts | 322° |
| 2026-05-05 13:44 | 57.14539 | 13.81067 | 37912 ft | 442 kts | 322° |
| 2026-05-05 13:44 | 57.19781 | 13.75065 | 37935 ft | 442 kts | 322° |
| 2026-05-05 13:45 | 57.25001 | 13.69068 | 37912 ft | 442 kts | 322° |
| 2026-05-05 13:45 | 57.30215 | 13.63058 | 37911 ft | 442 kts | 322° |
| 2026-05-05 13:46 | 57.35384 | 13.57079 | 37911 ft | 442 kts | 322° |
| 2026-05-05 13:46 | 57.40607 | 13.51018 | 37911 ft | 442 kts | 322° |
| 2026-05-05 13:47 | 57.45822 | 13.44945 | 37911 ft | 442 kts | 322° |
| 2026-05-05 13:47 | 57.51031 | 13.38858 | 37930 ft | 443 kts | 322° |
| 2026-05-05 13:48 | 57.56241 | 13.32750 | 37944 ft | 443 kts | 322° |
| 2026-05-05 13:48 | 57.61420 | 13.26657 | 37913 ft | 442 kts | 322° |
| 2026-05-05 13:49 | 57.66627 | 13.20510 | 37915 ft | 442 kts | 322° |
| 2026-05-05 13:49 | 57.71827 | 13.14349 | 37925 ft | 442 kts | 321° |
| 2026-05-05 13:50 | 57.76982 | 13.08222 | 37917 ft | 442 kts | 321° |
| 2026-05-05 13:50 | 57.82185 | 13.02015 | 37949 ft | 442 kts | 321° |
| 2026-05-05 13:51 | 57.87380 | 12.95798 | 37926 ft | 442 kts | 321° |
| 2026-05-05 13:51 | 57.92548 | 12.89590 | 37948 ft | 442 kts | 321° |
| 2026-05-05 13:52 | 57.97709 | 12.83370 | 37919 ft | 440 kts | 321° |
| 2026-05-05 13:52 | 58.02871 | 12.77127 | 37923 ft | 440 kts | 321° |
| 2026-05-05 13:53 | 58.05435 | 12.74017 | 37747 ft | 435 kts | 321° |
| 2026-05-05 13:53 | 58.07967 | 12.70942 | 37485 ft | 430 kts | 321° |
| 2026-05-05 13:53 | 58.10472 | 12.67894 | 37227 ft | 426 kts | 320° |
| 2026-05-05 13:53 | 58.12954 | 12.64868 | 36977 ft | 423 kts | 320° |
| 2026-05-05 13:54 | 58.15423 | 12.61854 | 36736 ft | 420 kts | 320° |
| 2026-05-05 13:54 | 58.17868 | 12.58864 | 36492 ft | 417 kts | 320° |
| 2026-05-05 13:54 | 58.20285 | 12.55903 | 36251 ft | 413 kts | 320° |
| 2026-05-05 13:54 | 58.22662 | 12.52986 | 36014 ft | 410 kts | 319° |
| 2026-05-05 13:55 | 58.25047 | 12.50056 | 35781 ft | 407 kts | 319° |
| 2026-05-05 13:55 | 58.27413 | 12.47144 | 35494 ft | 401 kts | 319° |
| 2026-05-05 13:55 | 58.29749 | 12.44263 | 34947 ft | 400 kts | 319° |
| 2026-05-05 13:55 | 58.32094 | 12.41366 | 34283 ft | 402 kts | 319° |
| 2026-05-05 13:56 | 58.34441 | 12.38463 | 33666 ft | 401 kts | 318° |
| 2026-05-05 13:56 | 58.36776 | 12.35572 | 33078 ft | 398 kts | 318° |
| 2026-05-05 13:56 | 58.39082 | 12.32712 | 32607 ft | 393 kts | 318° |
| 2026-05-05 13:56 | 58.41350 | 12.29893 | 32122 ft | 389 kts | 318° |
| 2026-05-05 13:57 | 58.43608 | 12.27083 | 31637 ft | 385 kts | 317° |
| 2026-05-05 13:57 | 58.45838 | 12.24302 | 31223 ft | 381 kts | 317° |
| 2026-05-05 13:57 | 58.48055 | 12.21534 | 30701 ft | 379 kts | 317° |
| 2026-05-05 13:57 | 58.50228 | 12.18817 | 30226 ft | 376 kts | 317° |
| 2026-05-05 13:58 | 58.52438 | 12.16049 | 29717 ft | 373 kts | 316° |
| 2026-05-05 13:58 | 58.54600 | 12.13339 | 29214 ft | 369 kts | 316° |
| 2026-05-05 13:58 | 58.56708 | 12.10691 | 28770 ft | 365 kts | 316° |
| 2026-05-05 13:58 | 58.58819 | 12.08035 | 28338 ft | 360 kts | 316° |
| 2026-05-05 13:59 | 58.62956 | 12.02820 | 27447 ft | 353 kts | 316° |
| 2026-05-05 13:59 | 58.64995 | 12.00244 | 27061 ft | 349 kts | 316° |
| 2026-05-05 14:00 | 58.68984 | 11.95194 | 26291 ft | 341 kts | 316° |
| 2026-05-05 14:00 | 58.70318 | 11.93501 | 26028 ft | 339 kts | 316° |
| 2026-05-05 14:00 | 58.72915 | 11.90203 | 25521 ft | 335 kts | 316° |
| 2026-05-05 14:00 | 58.74854 | 11.87737 | 25144 ft | 333 kts | 316° |
| 2026-05-05 14:01 | 58.76777 | 11.85287 | 24766 ft | 330 kts | 316° |
| 2026-05-05 14:01 | 58.78686 | 11.82852 | 24436 ft | 328 kts | 315° |
| 2026-05-05 14:01 | 58.80582 | 11.80430 | 24043 ft | 326 kts | 315° |
| 2026-05-05 14:01 | 58.82464 | 11.78023 | 23675 ft | 325 kts | 315° |
| 2026-05-05 14:02 | 58.84342 | 11.75618 | 23242 ft | 323 kts | 315° |
| 2026-05-05 14:02 | 58.86211 | 11.73221 | 22834 ft | 320 kts | 315° |
| 2026-05-05 14:02 | 58.88040 | 11.70872 | 22475 ft | 317 kts | 315° |
| 2026-05-05 14:02 | 58.89865 | 11.68526 | 22112 ft | 314 kts | 315° |
| 2026-05-05 14:03 | 58.91677 | 11.66194 | 21758 ft | 311 kts | 315° |
| 2026-05-05 14:03 | 58.93466 | 11.63887 | 21410 ft | 307 kts | 315° |
| 2026-05-05 14:03 | 58.95237 | 11.61602 | 21058 ft | 304 kts | 315° |
| 2026-05-05 14:03 | 58.96995 | 11.59331 | 20707 ft | 301 kts | 315° |
| 2026-05-05 14:04 | 58.98732 | 11.57083 | 20364 ft | 298 kts | 315° |
| 2026-05-05 14:04 | 59.00450 | 11.54858 | 20025 ft | 296 kts | 315° |
| 2026-05-05 14:04 | 59.02146 | 11.52657 | 19723 ft | 293 kts | 315° |
| 2026-05-05 14:04 | 59.03815 | 11.50490 | 19380 ft | 291 kts | 314° |
| 2026-05-05 14:05 | 59.05492 | 11.48310 | 19039 ft | 289 kts | 314° |
| 2026-05-05 14:05 | 59.07161 | 11.46138 | 18707 ft | 287 kts | 314° |
| 2026-05-05 14:05 | 59.08812 | 11.43986 | 18375 ft | 285 kts | 314° |
| 2026-05-05 14:05 | 59.10451 | 11.41848 | 18099 ft | 282 kts | 314° |
| 2026-05-05 14:06 | 59.12080 | 11.39720 | 17690 ft | 280 kts | 314° |
| 2026-05-05 14:06 | 59.13691 | 11.37616 | 17324 ft | 277 kts | 314° |
| 2026-05-05 14:06 | 59.15280 | 11.35536 | 17002 ft | 274 kts | 315° |
| 2026-05-05 14:06 | 59.16855 | 11.33472 | 16683 ft | 271 kts | 315° |
| 2026-05-05 14:07 | 59.18527 | 11.31687 | 16305 ft | 284 kts | 331° |
| 2026-05-05 14:07 | 59.20445 | 11.30806 | 16013 ft | 286 kts | 336° |
| 2026-05-05 14:07 | 59.22391 | 11.29995 | 15729 ft | 283 kts | 336° |
| 2026-05-05 14:07 | 59.24305 | 11.29218 | 15417 ft | 281 kts | 337° |
| 2026-05-05 14:08 | 59.26210 | 11.28459 | 15126 ft | 277 kts | 338° |
| 2026-05-05 14:08 | 59.28086 | 11.27721 | 14824 ft | 274 kts | 338° |
| 2026-05-05 14:08 | 59.29949 | 11.26991 | 14540 ft | 272 kts | 339° |
| 2026-05-05 14:08 | 59.31799 | 11.26268 | 14246 ft | 269 kts | 339° |
| 2026-05-05 14:09 | 59.33633 | 11.25551 | 13962 ft | 267 kts | 340° |
| 2026-05-05 14:09 | 59.35455 | 11.24839 | 13652 ft | 265 kts | 340° |
| 2026-05-05 14:09 | 59.37232 | 11.24144 | 13338 ft | 263 kts | 340° |
| 2026-05-05 14:09 | 59.39033 | 11.23437 | 13023 ft | 266 kts | 341° |
| 2026-05-05 14:10 | 59.40867 | 11.22715 | 12745 ft | 271 kts | 342° |
| 2026-05-05 14:10 | 59.42721 | 11.21984 | 12443 ft | 272 kts | 343° |
| 2026-05-05 14:10 | 59.44576 | 11.21256 | 12135 ft | 272 kts | 343° |
| 2026-05-05 14:10 | 59.46438 | 11.20523 | 11823 ft | 272 kts | 343° |
| 2026-05-05 14:11 | 59.48287 | 11.19796 | 11532 ft | 272 kts | 343° |
| 2026-05-05 14:11 | 59.50146 | 11.19063 | 11270 ft | 271 kts | 344° |
| 2026-05-05 14:11 | 59.51993 | 11.18335 | 11027 ft | 271 kts | 344° |
| 2026-05-05 14:11 | 59.53841 | 11.17605 | 10758 ft | 271 kts | 344° |
| 2026-05-05 14:12 | 59.55696 | 11.16871 | 10460 ft | 271 kts | 345° |
| 2026-05-05 14:12 | 59.57547 | 11.16136 | 10170 ft | 272 kts | 345° |
| 2026-05-05 14:12 | 59.59407 | 11.15399 | 9859 ft | 271 kts | 345° |
| 2026-05-05 14:12 | 59.61252 | 11.14667 | 9533 ft | 270 kts | 345° |
| 2026-05-05 14:13 | 59.63068 | 11.13946 | 9206 ft | 268 kts | 345° |
| 2026-05-05 14:13 | 59.64890 | 11.13219 | 8907 ft | 264 kts | 345° |
| 2026-05-05 14:13 | 59.66682 | 11.12504 | 8618 ft | 261 kts | 345° |
| 2026-05-05 14:13 | 59.68453 | 11.11801 | 8339 ft | 258 kts | 345° |
| 2026-05-05 14:14 | 59.70206 | 11.11101 | 8058 ft | 256 kts | 345° |
| 2026-05-05 14:14 | 59.71945 | 11.10407 | 7757 ft | 254 kts | 345° |
| 2026-05-05 14:14 | 59.73660 | 11.09722 | 7479 ft | 252 kts | 345° |
| 2026-05-05 14:14 | 59.75377 | 11.09034 | 7178 ft | 251 kts | 345° |
| 2026-05-05 14:15 | 59.77079 | 11.08352 | 6922 ft | 249 kts | 345° |
| 2026-05-05 14:15 | 59.78763 | 11.07676 | 6653 ft | 250 kts | 345° |
| 2026-05-05 14:15 | 59.80464 | 11.06995 | 6388 ft | 249 kts | 345° |
| 2026-05-05 14:15 | 59.82169 | 11.06306 | 6098 ft | 249 kts | 345° |
| 2026-05-05 14:16 | 59.83863 | 11.05626 | 5804 ft | 247 kts | 345° |
| 2026-05-05 14:16 | 59.85530 | 11.04955 | 5600 ft | 242 kts | 345° |
| 2026-05-05 14:16 | 59.87181 | 11.04290 | 5358 ft | 241 kts | 345° |
| 2026-05-05 14:16 | 59.88814 | 11.03629 | 5151 ft | 237 kts | 345° |
| 2026-05-05 14:17 | 59.90392 | 11.02992 | 4961 ft | 232 kts | 345° |
| 2026-05-05 14:17 | 59.91957 | 11.02357 | 4801 ft | 226 kts | 345° |
| 2026-05-05 14:17 | 59.93483 | 11.01738 | 4725 ft | 221 kts | 345° |
| 2026-05-05 14:17 | 59.94986 | 11.01131 | 4654 ft | 220 kts | 345° |
| 2026-05-05 14:18 | 59.96486 | 11.00521 | 4559 ft | 219 kts | 345° |
| 2026-05-05 14:18 | 59.97979 | 10.99966 | 4464 ft | 221 kts | 352° |
| 2026-05-05 14:18 | 59.99506 | 11.00461 | 4351 ft | 222 kts | 12° |
| 2026-05-05 14:18 | 60.00975 | 11.01295 | 4145 ft | 219 kts | 11° |
| 2026-05-05 14:19 | 60.02447 | 11.02107 | 3879 ft | 219 kts | 11° |
| 2026-05-05 14:19 | 60.03923 | 11.02948 | 3547 ft | 221 kts | 12° |
| 2026-05-05 14:19 | 60.05391 | 11.03787 | 3313 ft | 215 kts | 12° |
| 2026-05-05 14:19 | 60.06819 | 11.04603 | 3012 ft | 211 kts | 11° |
| 2026-05-05 14:20 | 60.08191 | 11.05391 | 2713 ft | 196 kts | 11° |
| 2026-05-05 14:20 | 60.09020 | 11.05869 | 2537 ft | 180 kts | 11° |
| 2026-05-05 14:20 | 60.10166 | 11.06519 | 2283 ft | 162 kts | 11° |
| 2026-05-05 14:20 | 60.11240 | 11.07143 | 2054 ft | 160 kts | 11° |
| 2026-05-05 14:21 | 60.12293 | 11.07751 | 1831 ft | 151 kts | 10° |
| 2026-05-05 14:21 | 60.13277 | 11.08312 | 1620 ft | 144 kts | 9° |
| 2026-05-05 14:21 | 60.14540 | 11.09031 | 1320 ft | 142 kts | 9° |
| 2026-05-05 14:21 | 60.15179 | 11.09402 | 1190 ft | 141 kts | 11° |
| 2026-05-05 14:22 | 60.16426 | 11.10122 | 957 ft | 143 kts | 11° |
| 2026-05-05 14:22 | 60.17078 | 11.10503 | 828 ft | 144 kts | 8° |
| 2026-05-05 14:22 | 60.18021 | 11.11038 | 686 ft | 137 kts | 13° |
| 2026-05-05 14:22 | 60.18763 | 11.11466 | 684 ft | 77 kts | 17° |
| 2026-05-05 14:23 | 60.19119 | 11.11668 | 685 ft | 34 kts | 15° |
| 2026-05-05 14:23 | 60.19275 | 11.11700 | 685 ft | 18 kts | 348° |
| 2026-05-05 14:23 | 60.19375 | 11.11537 | 684 ft | 21 kts | 288° |
| 2026-05-05 14:23 | 60.19382 | 11.11490 | 682 ft | 0 kts | 286° |
| 2026-05-05 14:24 | 60.19383 | 11.11485 | 682 ft | 1 kts | 286° |
| 2026-05-05 14:24 | 60.19385 | 11.11468 | 684 ft | 1 kts | 287° |
| 2026-05-05 14:24 | 60.19391 | 11.11433 | 685 ft | 6 kts | 287° |
| 2026-05-05 14:25 | 60.19412 | 11.11283 | 682 ft | 16 kts | 287° |
| 2026-05-05 14:25 | 60.19449 | 11.11021 | 683 ft | 22 kts | 286° |
| 2026-05-05 14:25 | 60.19489 | 11.10742 | 686 ft | 19 kts | 286° |
| 2026-05-05 14:25 | 60.19520 | 11.10530 | 686 ft | 15 kts | 287° |
| 2026-05-05 14:26 | 60.19523 | 11.10404 | 686 ft | 6 kts | 227° |
| 2026-05-05 14:26 | 60.19483 | 11.10376 | 685 ft | 6 kts | 196° |
| 2026-05-05 14:26 | 60.19450 | 11.10357 | 687 ft | 2 kts | 195° |
| 2026-05-05 14:26 | 60.19445 | 11.10355 | 688 ft | 0 kts | 195° |